createdAt,value
2022-12-28T00:01:26.103Z,17.50
2022-12-28T00:03:53.345Z,22.70
2022-12-28T00:06:22.134Z,17.50
2022-12-28T00:08:48.927Z,18.80
2022-12-28T00:11:26.655Z,17.08
2022-12-28T00:13:57.690Z,18.67
2022-12-28T00:16:32.726Z,19.63
2022-12-28T00:19:02.304Z,16.45
2022-12-28T00:21:29.467Z,16.40
2022-12-28T00:23:58.244Z,16.33
2022-12-28T00:26:26.600Z,15.57
2022-12-28T00:28:56.945Z,16.57
2022-12-28T00:31:28.462Z,16.00
2022-12-28T00:33:54.966Z,17.23
2022-12-28T00:36:21.451Z,15.77
2022-12-28T00:38:47.996Z,15.00
2022-12-28T00:41:14.342Z,19.50
2022-12-28T00:43:40.673Z,14.57
2022-12-28T00:46:07.299Z,15.70
2022-12-28T00:48:33.661Z,16.08
2022-12-28T00:51:08.572Z,14.18
2022-12-28T00:53:35.347Z,13.30
2022-12-28T00:56:21.679Z,15.20
2022-12-28T00:58:48.795Z,16.55
2022-12-28T01:01:25.552Z,15.32
2022-12-28T01:03:52.512Z,15.77
2022-12-28T01:06:20.304Z,18.30
2022-12-28T01:08:47.451Z,16.02
2022-12-28T01:11:21.635Z,17.23
2022-12-28T01:13:49.800Z,17.02
2022-12-28T01:16:22.458Z,14.85
2022-12-28T01:18:51.573Z,17.27
2022-12-28T01:21:22.672Z,15.23
2022-12-28T01:23:54.221Z,13.48
2022-12-28T01:26:20.908Z,14.00
2022-12-28T01:28:47.232Z,16.95
2022-12-28T01:31:16.334Z,14.60
2022-12-28T01:33:43.499Z,16.95
2022-12-28T01:36:14.450Z,16.73
2022-12-28T01:38:40.838Z,17.77
2022-12-28T01:41:09.132Z,14.73
2022-12-28T01:43:45.382Z,15.60
2022-12-28T01:46:46.831Z,17.08
2022-12-28T01:49:18.715Z,14.32
2022-12-28T01:51:57.442Z,16.92
2022-12-28T01:54:26.172Z,17.45
2022-12-28T01:56:53.472Z,18.03
2022-12-28T01:59:24.380Z,14.63
2022-12-28T02:01:51.305Z,14.65
2022-12-28T02:04:17.985Z,16.30
2022-12-28T02:06:44.912Z,17.08
2022-12-28T02:09:19.350Z,17.83
2022-12-28T02:11:46.072Z,15.43
2022-12-28T02:14:14.543Z,17.63
2022-12-28T02:16:43.472Z,27.80
2022-12-28T02:19:14.006Z,30.80
2022-12-28T02:22:10.003Z,23.60
2022-12-28T02:25:11.536Z,26.65
2022-12-28T02:28:03.220Z,27.63
2022-12-28T02:30:34.718Z,19.08
2022-12-28T02:33:24.876Z,21.25
2022-12-28T02:36:00.155Z,17.17
2022-12-28T02:38:38.187Z,21.02
2022-12-28T02:41:15.024Z,22.20
2022-12-28T02:43:41.929Z,28.92
2022-12-28T02:46:37.957Z,23.63
2022-12-28T02:49:41.353Z,17.10
2022-12-28T02:52:11.755Z,18.23
2022-12-28T02:55:10.572Z,18.58
2022-12-28T02:57:58.972Z,17.25
2022-12-28T03:00:29.437Z,15.30
2022-12-28T03:03:14.455Z,16.47
2022-12-28T03:06:30.469Z,15.50
2022-12-28T03:09:31.239Z,17.52
2022-12-28T03:12:08.777Z,15.65
2022-12-28T03:14:44.978Z,16.02
2022-12-28T03:17:31.129Z,15.47
2022-12-28T03:20:23.850Z,14.18
2022-12-28T03:23:11.014Z,14.60
2022-12-28T03:26:00.467Z,14.75
2022-12-28T03:28:48.441Z,15.10
2022-12-28T03:31:19.058Z,14.77
2022-12-28T03:33:51.968Z,16.05
2022-12-28T03:36:28.063Z,16.45
2022-12-28T03:39:04.368Z,17.13
2022-12-28T03:41:37.084Z,18.25
2022-12-28T03:44:13.232Z,17.50
2022-12-28T03:46:59.284Z,16.13
2022-12-28T03:49:27.759Z,16.50
2022-12-28T03:51:55.931Z,17.15
2022-12-28T03:54:22.488Z,16.55
2022-12-28T03:56:50.920Z,16.07
2022-12-28T03:59:18.574Z,14.60
2022-12-28T04:01:45.435Z,17.52
2022-12-28T04:04:12.000Z,15.80
2022-12-28T04:06:38.591Z,16.60
2022-12-28T04:09:06.432Z,17.17
2022-12-28T04:11:33.110Z,14.43
2022-12-28T04:14:01.258Z,17.52
2022-12-28T04:16:30.587Z,15.80
2022-12-28T04:18:57.082Z,15.18
2022-12-28T04:21:23.628Z,16.57
2022-12-28T04:23:49.988Z,16.67
2022-12-28T04:26:18.235Z,17.50
2022-12-28T04:28:44.669Z,15.00
2022-12-28T04:31:13.500Z,16.73
2022-12-28T04:33:41.122Z,17.83
2022-12-28T04:36:11.259Z,17.48
2022-12-28T04:38:38.408Z,17.65
2022-12-28T04:41:06.306Z,15.43
2022-12-28T04:43:34.142Z,15.95
2022-12-28T04:46:03.478Z,15.83
2022-12-28T04:48:30.559Z,18.48
2022-12-28T04:50:57.356Z,17.30
2022-12-28T04:53:24.223Z,16.63
2022-12-28T04:55:50.602Z,15.63
2022-12-28T04:58:17.188Z,17.47
2022-12-28T05:00:43.787Z,15.93
2022-12-28T05:03:10.308Z,16.60
2022-12-28T05:05:37.818Z,18.88
2022-12-28T05:08:04.446Z,18.58
2022-12-28T05:10:30.997Z,29.40
2022-12-28T05:12:57.632Z,25.38
2022-12-28T05:15:24.184Z,24.13
2022-12-28T05:17:50.888Z,20.92
2022-12-28T05:20:19.982Z,20.58
2022-12-28T05:22:46.528Z,20.20
2022-12-28T05:25:12.850Z,21.70
2022-12-28T05:27:39.337Z,21.52
2022-12-28T05:30:06.663Z,18.00
2022-12-28T05:32:33.192Z,19.33
2022-12-28T05:34:59.508Z,20.30
2022-12-28T05:37:26.101Z,18.75
2022-12-28T05:39:52.655Z,20.70
2022-12-28T05:42:19.250Z,19.70
2022-12-28T05:44:45.733Z,19.85
2022-12-28T05:47:13.872Z,21.97
2022-12-28T05:49:40.417Z,22.88
2022-12-28T05:52:06.986Z,24.10
2022-12-28T05:54:33.478Z,24.85
2022-12-28T05:57:01.071Z,22.65
2022-12-28T05:59:27.599Z,24.43
2022-12-28T06:01:54.256Z,21.08
2022-12-28T06:04:21.333Z,22.27
2022-12-28T06:06:48.449Z,22.30
2022-12-28T06:09:15.220Z,21.65
2022-12-28T06:11:41.829Z,19.17
2022-12-28T06:14:08.573Z,20.77
2022-12-28T06:16:38.180Z,22.15
2022-12-28T06:19:09.883Z,19.10
2022-12-28T06:21:38.252Z,16.95
2022-12-28T06:24:05.912Z,18.00
2022-12-28T06:26:34.369Z,18.30
2022-12-28T06:29:04.295Z,17.33
2022-12-28T06:31:33.820Z,19.13
2022-12-28T06:34:03.262Z,16.35
2022-12-28T06:36:35.867Z,17.43
2022-12-28T06:39:05.547Z,15.75
2022-12-28T06:41:32.599Z,15.80
2022-12-28T06:43:59.200Z,19.83
2022-12-28T06:46:28.712Z,16.73
2022-12-28T06:48:55.847Z,16.73
2022-12-28T06:51:25.021Z,15.18
2022-12-28T06:53:52.814Z,21.73
2022-12-28T06:56:31.069Z,19.27
2022-12-28T06:59:02.836Z,20.55
2022-12-28T07:01:35.951Z,21.07
2022-12-28T07:04:04.508Z,23.55
2022-12-28T07:06:35.558Z,25.75
2022-12-28T07:09:05.020Z,27.23
2022-12-28T07:11:31.633Z,25.23
2022-12-28T07:13:58.797Z,59.63
2022-12-28T07:16:27.334Z,64.45
2022-12-28T07:18:53.959Z,47.47
2022-12-28T07:21:23.498Z,38.97
2022-12-28T07:23:51.769Z,43.75
2022-12-28T07:26:20.605Z,40.27
2022-12-28T07:28:48.869Z,42.35
2022-12-28T07:31:18.370Z,36.95
2022-12-28T07:33:45.910Z,40.05
2022-12-28T07:36:15.443Z,35.63
2022-12-28T07:38:42.488Z,35.13
2022-12-28T07:41:14.579Z,39.20
2022-12-28T07:43:41.596Z,39.60
2022-12-28T07:46:13.952Z,42.72
2022-12-28T07:48:41.749Z,47.35
2022-12-28T07:51:10.771Z,47.40
2022-12-28T07:53:38.866Z,52.00
2022-12-28T07:56:06.048Z,53.35
2022-12-28T07:58:33.085Z,38.67
2022-12-28T08:01:16.045Z,36.50
2022-12-28T08:03:44.579Z,38.77
2022-12-28T08:06:20.010Z,47.88
2022-12-28T08:08:49.545Z,50.45
2022-12-28T08:11:18.463Z,39.50
2022-12-28T08:13:47.017Z,45.88
2022-12-28T08:16:15.659Z,41.93
2022-12-28T08:18:42.038Z,40.55
2022-12-28T08:21:12.597Z,35.45
2022-12-28T08:23:39.755Z,38.13
2022-12-28T08:26:06.652Z,34.90
2022-12-28T08:28:33.408Z,33.30
2022-12-28T08:31:08.630Z,46.15
2022-12-28T08:33:35.155Z,38.25
2022-12-28T08:36:01.827Z,37.88
2022-12-28T08:38:28.230Z,27.25
2022-12-28T08:40:57.645Z,51.13
2022-12-28T08:43:24.385Z,27.05
2022-12-28T08:46:02.611Z,24.38
2022-12-28T08:48:30.150Z,33.03
2022-12-28T08:51:02.208Z,26.83
2022-12-28T08:53:28.586Z,23.47
2022-12-28T08:55:55.076Z,23.73
2022-12-28T08:58:21.617Z,24.40
2022-12-28T09:00:48.199Z,26.52
2022-12-28T09:03:14.888Z,24.85
2022-12-28T09:05:41.583Z,22.93
2022-12-28T09:08:07.999Z,19.60
2022-12-28T09:10:34.558Z,21.92
2022-12-28T09:13:00.879Z,23.02
2022-12-28T09:15:27.399Z,28.55
2022-12-28T09:17:53.969Z,30.27
2022-12-28T09:20:20.499Z,36.15
2022-12-28T09:22:46.977Z,27.42
2022-12-28T09:25:13.292Z,30.60
2022-12-28T09:27:39.776Z,21.23
2022-12-28T09:30:06.834Z,21.23
2022-12-28T09:32:33.163Z,29.40
2022-12-28T09:34:59.725Z,25.45
2022-12-28T09:37:26.231Z,20.15
2022-12-28T09:39:57.966Z,19.92
2022-12-28T09:42:30.157Z,18.43
2022-12-28T09:45:13.008Z,16.45
2022-12-28T09:47:47.335Z,16.05
2022-12-28T09:50:16.524Z,20.92
2022-12-28T09:52:57.512Z,24.38
2022-12-28T09:55:25.460Z,25.87
2022-12-28T09:57:55.742Z,26.02
2022-12-28T10:00:37.372Z,24.38
2022-12-28T10:03:20.540Z,20.42
2022-12-28T10:05:47.773Z,20.42
2022-12-28T10:08:18.528Z,18.97
2022-12-28T10:10:48.889Z,19.17
2022-12-28T10:16:20.478Z,15.65
2022-12-28T10:18:48.346Z,15.80
2022-12-28T10:21:20.423Z,18.30
2022-12-28T10:24:29.876Z,18.33
2022-12-28T10:26:42.941Z,19.05
2022-12-28T10:29:18.789Z,19.80
2022-12-28T10:31:57.397Z,17.95
2022-12-28T10:34:25.033Z,22.63
2022-12-28T10:36:53.989Z,19.27
2022-12-28T10:39:25.739Z,18.42
2022-12-28T10:41:53.020Z,14.48
2022-12-28T10:44:38.996Z,16.98
2022-12-28T10:47:16.440Z,15.17
2022-12-28T10:50:10.558Z,16.25
2022-12-28T10:52:37.211Z,14.43
2022-12-28T10:55:23.684Z,15.65
2022-12-28T10:58:27.394Z,15.20
2022-12-28T11:00:36.662Z,20.07
2022-12-28T11:03:17.372Z,11.80
2022-12-28T11:05:44.019Z,19.23
2022-12-28T11:08:14.649Z,21.10
2022-12-28T11:10:41.185Z,23.23
2022-12-28T11:13:22.281Z,14.70
2022-12-28T11:15:49.136Z,12.88
2022-12-28T11:18:18.011Z,11.98
2022-12-28T11:20:50.706Z,14.52
2022-12-28T11:23:23.558Z,12.52
2022-12-28T11:25:51.107Z,11.33
2022-12-28T11:28:22.795Z,12.32
2022-12-28T11:30:51.317Z,9.25
2022-12-28T11:33:41.181Z,5.82
2022-12-28T11:36:20.435Z,7.38
2022-12-28T11:38:48.887Z,6.53
2022-12-28T11:41:27.540Z,6.50
2022-12-28T11:44:04.691Z,6.25
2022-12-28T11:46:31.197Z,6.00
2022-12-28T11:49:24.824Z,4.90
2022-12-28T11:52:30.964Z,9.43
2022-12-28T11:55:00.189Z,5.43
2022-12-28T11:57:33.649Z,4.90
2022-12-28T12:00:23.847Z,4.35
2022-12-28T12:02:57.578Z,5.00
2022-12-28T12:05:39.271Z,6.67
2022-12-28T12:08:11.719Z,6.47
2022-12-28T12:10:39.564Z,4.90
2022-12-28T12:13:43.577Z,6.25
2022-12-28T12:16:21.650Z,19.40
2022-12-28T12:18:55.536Z,9.57
2022-12-28T12:21:30.379Z,19.48
2022-12-28T12:24:04.904Z,9.93
2022-12-28T12:26:44.896Z,10.55
2022-12-28T12:29:29.287Z,13.00
2022-12-28T12:32:05.616Z,42.40
2022-12-28T12:34:39.129Z,9.20
2022-12-28T12:37:43.224Z,7.25
2022-12-28T12:40:09.780Z,4.93
2022-12-28T12:42:56.364Z,9.93
2022-12-28T12:45:49.450Z,7.57
2022-12-28T12:48:33.761Z,7.10
2022-12-28T12:51:23.981Z,12.23
2022-12-28T12:54:02.151Z,5.95
2022-12-28T12:56:49.598Z,6.15
2022-12-28T12:59:22.418Z,5.70
2022-12-28T13:02:07.556Z,9.13
2022-12-28T13:04:35.307Z,7.55
2022-12-28T13:07:06.318Z,5.63
2022-12-28T13:09:34.742Z,8.35
2022-12-28T13:12:02.466Z,5.60
2022-12-28T13:14:29.763Z,6.15
2022-12-28T13:16:59.049Z,7.30
2022-12-28T13:19:30.419Z,6.38
2022-12-28T13:21:59.063Z,6.43
2022-12-28T13:24:27.524Z,7.20
2022-12-28T13:26:59.340Z,7.53
2022-12-28T13:29:28.347Z,5.93
2022-12-28T13:31:54.728Z,6.20
2022-12-28T13:34:35.905Z,7.03
2022-12-28T13:37:13.786Z,7.37
2022-12-28T13:39:42.437Z,9.95
2022-12-28T13:42:16.829Z,10.57
2022-12-28T13:44:49.552Z,7.47
2022-12-28T13:47:39.636Z,6.05
2022-12-28T13:50:14.774Z,5.67
2022-12-28T13:52:59.246Z,6.78
2022-12-28T13:55:43.007Z,4.60
2022-12-28T13:58:14.537Z,6.15
2022-12-28T14:00:45.924Z,5.65
2022-12-28T14:03:13.191Z,4.50
2022-12-28T14:05:45.086Z,4.75
2022-12-28T14:08:12.025Z,5.82
2022-12-28T14:10:38.853Z,6.45
2022-12-28T14:13:07.156Z,4.40
2022-12-28T14:15:41.069Z,4.53
2022-12-28T14:18:08.603Z,4.68
2022-12-28T14:20:53.595Z,5.40
2022-12-28T14:23:20.213Z,4.47
2022-12-28T14:25:47.035Z,5.13
2022-12-28T14:28:31.041Z,7.57
2022-12-28T14:30:57.656Z,4.45
2022-12-28T14:33:27.808Z,5.13
2022-12-28T14:36:01.915Z,4.43
2022-12-28T14:38:40.470Z,6.00
2022-12-28T14:41:07.354Z,5.73
2022-12-28T14:43:35.653Z,8.05
2022-12-28T14:46:18.726Z,6.28
2022-12-28T14:48:46.149Z,5.55
2022-12-28T14:51:15.403Z,4.43
2022-12-28T14:53:44.947Z,5.77
2022-12-28T14:56:18.805Z,10.57
2022-12-28T14:58:58.664Z,8.43
2022-12-28T15:01:25.511Z,10.23
2022-12-28T15:03:57.712Z,11.93
2022-12-28T15:06:29.869Z,7.47
2022-12-28T15:08:58.946Z,9.60
2022-12-28T15:11:28.232Z,8.70
2022-12-28T15:13:56.830Z,11.05
2022-12-28T15:16:23.977Z,13.07
2022-12-28T15:18:50.993Z,13.93
2022-12-28T15:21:20.367Z,15.93
2022-12-28T15:23:51.339Z,18.10
2022-12-28T15:26:18.026Z,15.75
2022-12-28T15:28:44.932Z,15.48
2022-12-28T15:31:18.081Z,9.97
2022-12-28T15:33:45.445Z,10.88
2022-12-28T15:36:21.772Z,7.82
2022-12-28T15:38:49.270Z,8.00
2022-12-28T15:44:27.111Z,13.80
2022-12-28T15:46:53.775Z,10.20
2022-12-28T15:49:20.140Z,11.70
2022-12-28T15:51:47.919Z,8.70
2022-12-28T15:54:14.837Z,9.23
2022-12-28T15:56:41.986Z,10.77
2022-12-28T15:59:14.021Z,10.45
2022-12-28T16:01:42.971Z,11.20
2022-12-28T16:04:09.645Z,9.68
2022-12-28T16:06:43.662Z,10.35
2022-12-28T16:09:11.919Z,9.33
2022-12-28T16:11:38.466Z,9.43
2022-12-28T16:14:07.428Z,11.25
2022-12-28T16:16:37.424Z,9.68
2022-12-28T16:19:04.377Z,11.15
2022-12-28T16:21:30.753Z,9.37
2022-12-28T16:23:59.825Z,7.90
2022-12-28T16:26:26.421Z,7.57
2022-12-28T16:28:52.871Z,8.57
2022-12-28T16:31:28.936Z,9.52
2022-12-28T16:34:01.031Z,7.20
2022-12-28T16:36:28.100Z,8.00
2022-12-28T16:38:55.200Z,8.00
2022-12-28T16:41:22.309Z,6.72
2022-12-28T16:43:49.639Z,8.32
2022-12-28T16:46:17.377Z,8.00
2022-12-28T16:48:44.017Z,12.35
2022-12-28T16:51:12.509Z,10.65
2022-12-28T16:53:39.372Z,11.77
2022-12-28T16:56:06.981Z,11.35
2022-12-28T16:58:33.846Z,10.37
2022-12-28T17:01:07.435Z,20.73
2022-12-28T17:03:35.347Z,17.13
2022-12-28T17:06:01.945Z,18.30
2022-12-28T17:08:28.533Z,292.27
2022-12-28T17:10:55.072Z,98.30
2022-12-28T17:13:21.685Z,110.20
2022-12-28T17:15:48.856Z,217.38
2022-12-28T17:18:15.670Z,139.38
2022-12-28T17:20:44.173Z,65.18
2022-12-28T17:23:10.563Z,19.57
2022-12-28T17:25:37.096Z,9.02
2022-12-28T17:28:04.158Z,6.95
2022-12-28T17:30:31.072Z,9.68
2022-12-28T17:32:57.564Z,9.15
2022-12-28T17:35:24.410Z,10.47
2022-12-28T17:37:51.044Z,9.40
2022-12-28T17:40:17.848Z,10.68
2022-12-28T17:42:44.444Z,15.93
2022-12-28T17:45:12.112Z,8.38
2022-12-28T17:47:39.186Z,7.90
2022-12-28T17:50:06.608Z,9.98
2022-12-28T17:52:33.254Z,8.50
2022-12-28T17:54:59.821Z,11.55
2022-12-28T17:57:26.317Z,13.68
2022-12-28T17:59:52.891Z,18.03
2022-12-28T18:02:19.592Z,24.80
2022-12-28T18:04:46.767Z,16.95
2022-12-28T18:07:13.333Z,17.40
2022-12-28T18:09:39.688Z,17.23
2022-12-28T18:12:06.130Z,12.93
2022-12-28T18:14:32.679Z,14.55
2022-12-28T18:16:59.219Z,13.73
2022-12-28T18:19:25.587Z,13.05
2022-12-28T18:21:52.162Z,14.25
2022-12-28T18:24:21.132Z,12.00
2022-12-28T18:26:48.134Z,7.03
2022-12-28T18:29:14.809Z,7.65
2022-12-28T18:31:41.418Z,8.25
2022-12-28T18:34:07.979Z,6.80
2022-12-28T18:36:34.336Z,7.33
2022-12-28T18:39:02.775Z,7.30
2022-12-28T18:41:34.054Z,9.63
2022-12-28T18:44:02.964Z,9.50
2022-12-28T18:46:29.867Z,9.98
2022-12-28T18:48:56.776Z,11.10
2022-12-28T18:51:23.378Z,11.40
2022-12-28T18:53:51.054Z,10.18
2022-12-28T18:56:21.935Z,10.07
2022-12-28T18:58:53.573Z,7.95
2022-12-28T19:04:11.676Z,6.25
2022-12-28T19:06:38.423Z,7.57
2022-12-28T19:09:06.472Z,8.07
2022-12-28T19:11:33.016Z,8.05
2022-12-28T19:13:59.552Z,8.30
2022-12-28T19:16:31.019Z,5.97
2022-12-28T19:18:58.017Z,6.68
2022-12-28T19:21:35.161Z,7.13
2022-12-28T19:24:04.318Z,7.78
2022-12-28T19:26:32.146Z,6.90
2022-12-28T19:28:58.892Z,10.50
2022-12-28T19:31:25.332Z,11.20
2022-12-28T19:33:51.906Z,11.60
2022-12-28T19:36:18.295Z,14.18
2022-12-28T19:38:44.833Z,16.80
2022-12-28T19:41:13.736Z,14.13
2022-12-28T19:43:40.784Z,12.52
2022-12-28T19:46:13.908Z,13.45
2022-12-28T19:48:40.825Z,26.38
2022-12-28T19:51:07.947Z,26.43
2022-12-28T19:53:34.280Z,38.95
2022-12-28T19:56:10.934Z,38.38
2022-12-28T19:58:39.509Z,35.33
2022-12-28T20:01:08.674Z,33.08
2022-12-28T20:03:35.439Z,31.03
2022-12-28T20:06:09.651Z,26.60
2022-12-28T20:08:36.255Z,26.13
2022-12-28T20:11:03.969Z,23.80
2022-12-28T20:13:31.690Z,28.52
2022-12-28T20:15:58.625Z,33.10
2022-12-28T20:18:25.182Z,24.85
2022-12-28T20:21:18.457Z,16.90
2022-12-28T20:23:39.615Z,17.73
2022-12-28T20:26:06.428Z,14.98
2022-12-28T20:28:33.258Z,13.37
2022-12-28T20:31:01.118Z,14.25
2022-12-28T20:33:27.709Z,12.82
2022-12-28T20:36:01.964Z,13.05
2022-12-28T20:38:29.268Z,10.88
2022-12-28T20:41:07.672Z,12.93
2022-12-28T20:43:35.484Z,11.70
2022-12-28T20:46:02.760Z,12.18
2022-12-28T20:48:29.965Z,11.00
2022-12-28T20:50:59.059Z,15.65
2022-12-28T20:53:26.315Z,13.77
2022-12-28T20:55:52.841Z,13.85
2022-12-28T20:58:20.491Z,15.45
2022-12-28T21:00:47.083Z,15.60
2022-12-28T21:03:13.951Z,14.77
2022-12-28T21:05:40.491Z,22.93
2022-12-28T21:08:07.013Z,17.58
2022-12-28T21:10:33.542Z,16.48
2022-12-28T21:13:00.069Z,14.85
2022-12-28T21:15:26.665Z,16.70
2022-12-28T21:17:53.155Z,16.03
2022-12-28T21:20:19.644Z,13.70
2022-12-28T21:22:46.218Z,16.63
2022-12-28T21:25:12.734Z,15.98
2022-12-28T21:27:39.244Z,15.02
2022-12-28T21:30:06.610Z,17.20
2022-12-28T21:32:33.147Z,16.48
2022-12-28T21:34:59.653Z,16.27
2022-12-28T21:37:35.339Z,17.25
2022-12-28T21:40:07.278Z,16.23
2022-12-28T21:42:34.598Z,17.60
2022-12-28T21:45:01.008Z,18.40
2022-12-28T21:47:27.524Z,22.85
2022-12-28T21:49:56.877Z,16.55
2022-12-28T21:52:23.573Z,17.15
2022-12-28T21:54:50.101Z,19.63
2022-12-28T21:57:16.495Z,20.20
2022-12-28T21:59:43.084Z,18.65
2022-12-28T22:02:32.949Z,19.15
2022-12-28T22:05:19.695Z,18.25
2022-12-28T22:07:46.515Z,17.87
2022-12-28T22:10:37.754Z,18.83
2022-12-28T22:13:05.438Z,18.52
2022-12-28T22:15:50.346Z,17.92
2022-12-28T22:18:44.439Z,18.73
2022-12-28T22:21:06.514Z,20.43
2022-12-28T22:23:35.012Z,21.73
2022-12-28T22:26:01.567Z,19.40
2022-12-28T22:28:28.061Z,19.25
2022-12-28T22:30:54.646Z,19.77
2022-12-28T22:33:20.993Z,20.57
2022-12-28T22:35:47.547Z,20.30
2022-12-28T22:38:14.064Z,17.85
2022-12-28T22:40:40.426Z,18.13
2022-12-28T22:43:06.917Z,20.45
2022-12-28T22:45:33.418Z,19.27
2022-12-28T22:47:59.980Z,20.65
2022-12-28T22:50:27.475Z,18.70
2022-12-28T22:52:55.421Z,20.15
2022-12-28T22:55:21.915Z,18.90
2022-12-28T22:57:48.243Z,19.60
2022-12-28T23:00:15.051Z,21.08
2022-12-28T23:02:43.025Z,20.17
2022-12-28T23:05:09.939Z,22.10
2022-12-28T23:07:38.632Z,21.00
2022-12-28T23:10:07.117Z,21.83
2022-12-28T23:12:33.836Z,22.67
2022-12-28T23:15:19.318Z,22.42
2022-12-28T23:17:48.249Z,23.80
2022-12-28T23:20:33.672Z,23.27
2022-12-28T23:23:18.996Z,20.77
2022-12-28T23:26:04.322Z,21.33
2022-12-28T23:28:30.895Z,19.63
2022-12-28T23:30:57.618Z,19.52
2022-12-28T23:33:24.346Z,21.83
2022-12-28T23:35:50.978Z,27.57
2022-12-28T23:38:17.357Z,22.65
2022-12-28T23:40:43.884Z,26.05
2022-12-28T23:43:10.248Z,24.80
2022-12-28T23:45:36.829Z,23.60
2022-12-28T23:48:04.656Z,23.00
2022-12-28T23:50:31.179Z,24.65
2022-12-28T23:52:57.691Z,25.08
2022-12-28T23:55:24.206Z,23.10
2022-12-28T23:57:50.695Z,22.55
